Flight Track Log - Related Links

Times and Time Zones

All times are in EDT time to prevent confusion due to time zone crossing. See the UAL582 flight status page for this flight to view local times or setup timezone preferences in your user account.

Time Position Orientation Groundspeed Altitude Reporting Facility
EDT Latitude Longitude Course Direction KTS MPH feet Rate Location/Type
Mon 08:24:21 PM 41.9667 -87.8500 180° South 172 198 2,800  Level Chicago TRACON
Mon 08:26:00 PM 41.6758 -87.7632 180° South  Level Estimated
Mon 08:26:15 PM 41.8897 -87.7456 135° Southeast 261 300 7,700  Level Chicago Center
Mon 08:27:00 PM 41.5738 -87.7156 176° South  Level Estimated
Mon 08:27:17 PM 41.8164 -87.8214 218° Southwest 288 331 11,900  Level Chicago Center
Mon 08:28:00 PM 41.4862 -87.8000 216° Southwest  Level FlightAware Approximate
Mon 08:28:19 PM 41.7286 -87.8314 185° South 318 366 13,700  Level Chicago Center
Mon 08:29:00 PM 41.3846 -87.7511 180° South  Level Estimated
Mon 08:29:21 PM 41.6239 -87.8483 187° South 372 428 15,800  Level Chicago Center
Mon 08:30:23 PM 41.5139 -87.8636 186° South 392 451 18,300 2,226 Climbing Chicago Center
Mon 08:31:25 PM 41.3983 -87.8794 186° South 404 465 20,400 2,081 Climbing Chicago Center
Mon 08:32:27 PM 41.2786 -87.8900 184° South 422 486 22,600 1,935 Climbing Chicago Center
Mon 08:33:29 PM 41.1569 -87.8914 180° South 431 496 24,400 1,839 Climbing Chicago Center
Mon 08:34:31 PM 41.0069 -87.8853 178° South 447 514 26,400 1,694 Climbing Chicago Center
Mon 08:35:33 PM 40.8811 -87.8800 178° South 453 521 27,900 1,463 Climbing Chicago Center
Mon 08:37:15 PM 40.6631 -87.8750 179° South 466 536 30,400 1,440 Climbing Indianapolis Center
Mon 08:37:38 PM 40.6219 -87.8725 177° South 466 536 30,900 1,561 Climbing Chicago Center
Mon 08:39:18 PM 40.4069 -87.8669 179° South 461 531 33,600 1,645 Climbing Indianapolis Center
Mon 08:39:42 PM 40.3406 -87.8636 178° South 461 531 34,300 1,953 Climbing Chicago Center
Mon 08:40:44 PM 40.2161 -87.8606 179° South 455 524 36,400 1,440 Climbing Chicago Center
Mon 08:41:22 PM 40.1333 -87.8567 178° South 446 513 36,700 364 Climbing Indianapolis Center
Mon 08:42:23 PM 40.0086 -87.8506 178° South 447 514 37,000 146 Climbing Indianapolis Center
Mon 08:43:25 PM 39.8836 -87.8461 178° South 451 519 37,000  Level Indianapolis Center
Mon 08:44:26 PM 39.7603 -87.8406 178° South 449 517 37,000  Level Indianapolis Center
Mon 08:45:28 PM 39.6361 -87.8342 178° South 448 516 37,000 -48 Level Indianapolis Center
Mon 08:46:30 PM 39.5133 -87.8283 178° South 446 513 36,900 -49 Descending Indianapolis Center
Mon 08:47:31 PM 39.3675 -87.8231 178° South 446 513 36,900 33 Level Indianapolis Center
Mon 08:49:34 PM 39.1158 -87.8131 178° South 451 519 37,000 32 Climbing Indianapolis Center
Mon 08:50:36 PM 38.9911 -87.7908 172° South 451 519 37,000  Level Indianapolis Center
Mon 08:52:07 PM 38.8214 -87.7094 160° South 444 511 37,000  Level Chicago Center
Mon 08:52:39 PM 38.7564 -87.6931 169° South 441 507 37,000 -65 Level Indianapolis Center
Mon 08:53:40 PM 38.6386 -87.6447 162° South 443 510 36,900  Descending Indianapolis Center
Mon 08:55:00 PM 38.5000 -87.5880 162° South  Level FlightAware Approximate
Mon 08:55:43 PM 38.3781 -87.5422 162° South 447 514 37,000  Level Indianapolis Center
Mon 08:56:45 PM 38.2575 -87.4956 163° South 453 521 37,000  Level Indianapolis Center
Mon 08:57:46 PM 38.1361 -87.4475 163° South 458 527 37,000  Level Indianapolis Center
Mon 08:58:48 PM 38.0144 -87.3997 163° South 462 532 37,000  Level Indianapolis Center
Mon 08:59:49 PM 37.8917 -87.3519 163° South 463 533 37,000 -33 Level Indianapolis Center
Mon 09:01:52 PM 37.6322 -87.2508 163° South 469 540 36,900  Descending Indianapolis Center
Mon 09:02:53 PM 37.5044 -87.2025 163° South 473 544 37,000 79 Climbing Indianapolis Center
Mon 09:03:08 PM 37.4622 -87.1878 165° South 470 541 37,000  Level Memphis Center
Mon 09:04:08 PM 37.3381 -87.1378 162° South 470 541 37,000  Level Memphis Center
Mon 09:05:08 PM 37.2117 -87.0883 163° South 475 547 37,000 -50 Level Memphis Center
Mon 09:06:08 PM 37.1003 -87.0461 163° South 475 547 36,900  Descending Memphis Center
Mon 09:07:08 PM 36.9761 -86.9992 163° South 475 547 37,000 50 Climbing Memphis Center
Mon 09:08:08 PM 36.8497 -86.9528 164° South 475 547 37,000 -50 Level Memphis Center
Mon 09:09:08 PM 36.7275 -86.9061 163° South 470 541 36,900 -200 Descending Memphis Center
Mon 09:10:08 PM 36.6033 -86.8597 163° South 465 535 36,600 -550 Descending Memphis Center
Mon 09:11:08 PM 36.4706 -86.8061 162° South 465 535 35,800 -800 Descending Memphis Center
Mon 09:12:08 PM 36.3358 -86.7606 165° South 480 552 35,000 -567 Descending Memphis Center
Mon 09:14:08 PM 36.1044 -86.6564 160° South 484 557 34,100 -633 Descending Indianapolis Center
Mon 09:15:08 PM 35.9858 -86.5631 148° Southeast 475 547 33,100 -314 Descending Memphis Center
Mon 09:17:00 PM 35.8899 -86.4813 149° Southeast  Level FlightAware Approximate
Mon 09:17:57 PM 35.6683 -86.3061 149° Southeast 496 571 32,900  Level Atlanta Center
Mon 09:18:57 PM 35.5447 -86.2083 147° Southeast 491 565 33,000  Climbing Atlanta Center
Mon 09:19:57 PM 35.4336 -86.1211 147° Southeast 486 559 32,900 -450 Descending Atlanta Center
Mon 09:20:57 PM 35.3225 -86.0319 147° Southeast 481 554 32,100 -900 Descending Atlanta Center
Mon 09:21:57 PM 35.2133 -85.9428 146° Southeast 475 547 31,100 -1,000 Descending Atlanta Center
Mon 09:22:57 PM 35.1039 -85.8564 147° Southeast 475 547 30,100 -1,000 Descending Atlanta Center
Mon 09:23:57 PM 34.9925 -85.7678 147° Southeast 475 547 29,100 -1,000 Descending Atlanta Center
Mon 09:25:00 PM 34.8982 -85.6837 147° Southeast  Level FlightAware Approximate
Mon 09:25:57 PM 34.7736 -85.5939 147° Southeast 475 547 27,100  Level Atlanta Center
Mon 09:26:57 PM 34.6619 -85.5086 148° Southeast 475 547 26,200 -1,000 Descending Atlanta Center
Mon 09:27:57 PM 34.5544 -85.4258 148° Southeast 475 547 25,100 -1,250 Descending Atlanta Center
Mon 09:28:57 PM 34.4553 -85.3461 146° Southeast 459 528 23,700 -2,200 Descending Atlanta Center
Mon 09:29:57 PM 34.3661 -85.2794 148° Southeast 415 478 20,700 -3,200 Descending Atlanta Center
Mon 09:30:57 PM 34.2731 -85.2053 147° Southeast 392 451 17,300 -2,451 Descending Atlanta Center
Mon 09:32:41 PM 34.1167 -85.0667 144° Southeast 390 449 14,000 -1,650 Descending Atlanta TRACON
Mon 09:32:57 PM 34.1053 -85.0447 122° Southeast 387 445 14,000 -474 Level Atlanta Center
Mon 09:33:57 PM 34.0289 -84.9511 135° Southeast 387 445 13,400 -1,000 Descending Atlanta Center
Mon 09:34:57 PM 33.9606 -84.8578 131° Southeast 381 438 12,000 -700 Descending Atlanta Center
Mon 09:35:57 PM 33.8922 -84.7744 135° Southeast 354 407 12,000  Level Atlanta Center
Mon 09:36:47 PM 33.8333 -84.7000 134° Southeast 330 380 12,000  Level Atlanta TRACON
Mon 09:37:47 PM 33.7833 -84.6333 132° Southeast 327 376 12,000 -50 Level Atlanta TRACON
Mon 09:38:47 PM 33.7333 -84.5500 126° Southeast 288 331 11,900 -476 Descending Atlanta TRACON
Mon 09:39:53 PM 33.7333 -84.4500 90° East 271 312 11,000 -1,190 Descending Atlanta TRACON
Mon 09:40:53 PM 33.7333 -84.3667 90° East 258 297 9,400 -1,690 Descending Atlanta TRACON
Mon 09:42:47 PM 33.7333 -84.2000 90° East 246 283 6,100 -1,586 Descending Atlanta TRACON
Mon 09:43:47 PM 33.6833 -84.1667 151° Southeast 221 254 4,800 -1,000 Descending Atlanta TRACON
Mon 09:44:47 PM 33.6500 -84.2167 231° Southwest 188 216 4,100 -800 Descending Atlanta TRACON
Mon 09:45:47 PM 33.6500 -84.2667 270° West 178 205 3,200 -900 Descending Atlanta TRACON

Login

Don't have an account? Register now (free) for customized features, flight alerts, and more!